Time;durP1;ratioP1;P1;durP2;ratioP2;P2;SDS_P1;SDS_P2;PMS_P1;PMS_P2;Temp;Humidity;BMP_temperature;BMP_pressure;BME280_temperature;BME280_humidity;BME280_pressure;Samples;Min_cycle;Max_cycle;Signal;HPM_P1;HPM_P2
2021/03/06 00:00:24;;;;;;;10.15;2.78;;;1.90;80.60;;;;;;5060653;28;20514;-69
2021/03/06 00:02:53;;;;;;;6.93;2.22;;;1.90;80.20;;;;;;5060655;28;20090;-69
2021/03/06 00:05:21;;;;;;;15.15;3.60;;;1.90;80.20;;;;;;5060364;28;20080;-69
2021/03/06 00:07:47;;;;;;;6.22;2.38;;;1.90;80.40;;;;;;5059096;28;20044;-69
2021/03/06 00:10:13;;;;;;;10.27;2.80;;;1.90;80.20;;;;;;5063131;28;20060;-69
2021/03/06 00:12:41;;;;;;;9.10;2.40;;;1.80;80.40;;;;;;5066808;28;20565;-69
2021/03/06 00:15:09;;;;;;;9.52;2.90;;;1.80;80.80;;;;;;5063510;28;20043;-69
2021/03/06 00:17:35;;;;;;;9.35;2.50;;;1.80;80.60;;;;;;5062302;28;20506;-69
2021/03/06 00:20:00;;;;;;;11.68;3.13;;;1.70;80.60;;;;;;5065167;28;20032;-69
2021/03/06 00:22:26;;;;;;;10.05;2.65;;;1.70;80.50;;;;;;5064235;28;20035;-69
2021/03/06 00:24:51;;;;;;;9.80;2.75;;;1.70;80.20;;;;;;5064976;28;20025;-70
2021/03/06 00:27:18;;;;;;;10.00;2.38;;;1.70;80.70;;;;;;5066541;28;20020;-69
2021/03/06 00:29:43;;;;;;;13.98;2.80;;;1.70;80.50;;;;;;5062992;28;20223;-69
2021/03/06 00:32:10;;;;;;;8.60;2.70;;;1.70;81.10;;;;;;5063870;28;20111;-69
2021/03/06 00:34:35;;;;;;;6.30;2.35;;;1.60;81.30;;;;;;5065009;28;20036;-70
2021/03/06 00:37:01;;;;;;;6.55;2.70;;;1.60;81.40;;;;;;5062087;28;20537;-69
2021/03/06 00:39:27;;;;;;;7.00;2.75;;;1.60;81.20;;;;;;5064685;28;20115;-69
2021/03/06 00:41:52;;;;;;;6.55;2.88;;;1.60;81.20;;;;;;5065735;28;20429;-69
2021/03/06 00:44:18;;;;;;;7.38;2.60;;;1.60;81.50;;;;;;5063656;28;20032;-69
2021/03/06 00:46:44;;;;;;;7.40;2.10;;;1.50;81.20;;;;;;5064364;28;20028;-69
2021/03/06 00:49:11;;;;;;;5.80;2.10;;;1.50;81.10;;;;;;5061421;28;20063;-71
2021/03/06 00:51:36;;;;;;;8.32;2.47;;;1.50;81.20;;;;;;5067460;28;20270;-69
2021/03/06 00:54:02;;;;;;;7.85;2.28;;;1.50;81.20;;;;;;5063153;28;20158;-70
2021/03/06 00:56:27;;;;;;;10.02;2.22;;;1.50;81.40;;;;;;5063686;28;20036;-70
2021/03/06 00:58:53;;;;;;;9.10;2.42;;;1.50;81.20;;;;;;5063027;28;20025;-70
2021/03/06 01:01:19;;;;;;;9.70;2.13;;;1.50;81.60;;;;;;5062797;28;20497;-69
2021/03/06 01:03:44;;;;;;;5.47;1.70;;;1.50;81.40;;;;;;5063838;28;20029;-69
2021/03/06 01:06:10;;;;;;;6.32;2.05;;;1.50;81.20;;;;;;5062559;28;20378;-69
2021/03/06 01:08:36;;;;;;;9.32;2.00;;;1.50;81.50;;;;;;5063243;28;20394;-69
2021/03/06 01:11:03;;;;;;;8.73;2.40;;;1.50;81.70;;;;;;5062301;28;20074;-69
2021/03/06 01:13:29;;;;;;;8.35;1.98;;;1.40;81.60;;;;;;5062569;28;20029;-69
2021/03/06 01:15:54;;;;;;;6.13;2.10;;;1.40;82.10;;;;;;5062940;28;20029;-69
2021/03/06 01:18:20;;;;;;;5.15;1.80;;;1.40;81.90;;;;;;5063420;28;20036;-69
2021/03/06 01:20:46;;;;;;;7.32;2.00;;;1.40;81.80;;;;;;5060805;28;20035;-69
2021/03/06 01:23:12;;;;;;;8.85;2.05;;;1.40;82.30;;;;;;5063906;28;20037;-70
2021/03/06 01:25:39;;;;;;;5.07;1.98;;;1.30;81.80;;;;;;5061615;28;20492;-70
2021/03/06 01:28:05;;;;;;;5.75;2.00;;;1.40;82.10;;;;;;5062084;28;20038;-69
2021/03/06 01:30:31;;;;;;;9.48;2.47;;;1.30;81.80;;;;;;5062769;28;20025;-69
2021/03/06 01:32:57;;;;;;;8.73;2.42;;;1.30;82.10;;;;;;5063794;28;20096;-71
2021/03/06 01:35:25;;;;;;;9.35;2.30;;;1.30;82.30;;;;;;5063369;28;20029;-69
2021/03/06 01:37:51;;;;;;;6.85;2.28;;;1.30;82.10;;;;;;5063154;28;20027;-70
2021/03/06 01:40:21;;;;;;;7.00;1.90;;;1.30;82.30;;;;;;5065873;28;20029;-70
2021/03/06 01:42:47;;;;;;;7.78;2.00;;;1.30;82.30;;;;;;5064171;28;20356;-70
2021/03/06 01:45:13;;;;;;;10.85;1.95;;;1.30;82.40;;;;;;5062087;28;20086;-70
2021/03/06 01:47:39;;;;;;;5.22;2.10;;;1.30;82.40;;;;;;5064012;28;20048;-69
2021/03/06 01:50:07;;;;;;;5.32;1.63;;;1.30;82.90;;;;;;5062928;28;20024;-69
2021/03/06 01:52:33;;;;;;;7.35;1.65;;;1.30;83.00;;;;;;5064578;28;20047;-70
2021/03/06 01:55:00;;;;;;;10.50;2.38;;;1.30;83.30;;;;;;5059153;28;20028;-70
2021/03/06 01:57:26;;;;;;;5.95;2.00;;;1.30;83.20;;;;;;5061393;28;20043;-69
2021/03/06 01:59:52;;;;;;;7.10;2.10;;;1.20;83.10;;;;;;5059979;28;20055;-69
2021/03/06 02:02:18;;;;;;;9.90;2.00;;;1.20;83.20;;;;;;5061014;28;20052;-69
2021/03/06 02:04:44;;;;;;;7.88;1.73;;;1.20;83.00;;;;;;5061579;28;20083;-70
2021/03/06 02:07:09;;;;;;;10.93;2.50;;;1.20;82.70;;;;;;5064174;28;20441;-69
2021/03/06 02:09:35;;;;;;;10.77;2.22;;;1.20;82.80;;;;;;5064452;28;20028;-70
2021/03/06 02:12:19;;;;;;;6.93;1.88;;;1.20;82.90;;;;;;5064499;28;20027;-70
2021/03/06 02:15:13;;;;;;;7.93;2.83;;;1.20;83.30;;;;;;5063005;28;20036;-70
2021/03/06 02:18:08;;;;;;;7.45;2.35;;;1.20;83.40;;;;;;5063991;28;20029;-70
2021/03/06 02:21:02;;;;;;;8.05;2.05;;;1.20;83.90;;;;;;5061427;28;20028;-70
2021/03/06 02:23:43;;;;;;;12.52;2.35;;;1.20;84.00;;;;;;5064485;28;20039;-70
2021/03/06 02:26:30;;;;;;;8.38;2.53;;;1.20;84.00;;;;;;5061301;28;20485;-70
2021/03/06 02:29:37;;;;;;;7.68;1.95;;;1.20;83.90;;;;;;5061460;28;20409;-69
2021/03/06 02:32:27;;;;;;;6.15;1.92;;;1.20;83.90;;;;;;5063022;28;20384;-70
2021/03/06 02:35:03;;;;;;;10.90;2.10;;;1.20;83.60;;;;;;5063976;28;20098;-70
2021/03/06 02:37:31;;;;;;;13.23;2.40;;;1.20;84.00;;;;;;5068667;28;20037;-69
2021/03/06 02:39:59;;;;;;;11.55;2.17;;;1.20;84.20;;;;;;5060813;28;20086;-70
2021/03/06 02:42:27;;;;;;;7.57;1.85;;;1.20;84.40;;;;;;5063329;28;20053;-70
2021/03/06 02:44:55;;;;;;;6.10;1.60;;;1.20;84.70;;;;;;5062042;28;20040;-70
2021/03/06 02:47:22;;;;;;;8.00;1.63;;;1.20;85.00;;;;;;5064177;28;20035;-70
2021/03/06 02:49:52;;;;;;;4.90;1.42;;;1.20;84.90;;;;;;5062944;28;20017;-70
2021/03/06 02:52:18;;;;;;;6.50;1.88;;;1.20;84.70;;;;;;5075744;28;20020;-69
2021/03/06 02:54:45;;;;;;;8.02;2.15;;;1.30;84.70;;;;;;5062126;28;20385;-69
2021/03/06 02:57:17;;;;;;;8.05;1.60;;;1.30;84.90;;;;;;5061490;28;20041;-70
2021/03/06 03:00:05;;;;;;;5.47;1.70;;;1.30;84.70;;;;;;5061373;28;20036;-70
2021/03/06 03:02:46;;;;;;;5.20;1.52;;;1.30;84.60;;;;;;5062942;28;20040;-70
2021/03/06 03:05:48;;;;;;;7.45;1.67;;;1.30;84.70;;;;;;5061273;28;20066;-70
2021/03/06 03:08:29;;;;;;;5.75;1.63;;;1.40;84.90;;;;;;5062599;28;20025;-70
2021/03/06 03:10:58;;;;;;;5.63;1.95;;;1.40;84.40;;;;;;5061105;28;20025;-70
2021/03/06 03:13:27;;;;;;;5.13;1.85;;;1.40;84.80;;;;;;5059313;28;20525;-69
2021/03/06 03:16:03;;;;;;;8.77;1.58;;;1.40;84.80;;;;;;5091114;28;20028;-69
2021/03/06 03:18:33;;;;;;;6.72;1.60;;;1.40;84.90;;;;;;5081135;28;20036;-69
2021/03/06 03:21:04;;;;;;;6.75;1.50;;;1.40;84.50;;;;;;5062969;28;20044;-69
2021/03/06 03:23:45;;;;;;;8.05;1.63;;;1.50;84.60;;;;;;5061917;28;20604;-70
2021/03/06 03:26:14;;;;;;;7.32;1.83;;;1.50;84.90;;;;;;5061793;28;20025;-70
2021/03/06 03:28:42;;;;;;;9.32;1.70;;;1.50;85.30;;;;;;5059438;28;20021;-70
2021/03/06 03:31:09;;;;;;;5.55;1.60;;;1.50;85.50;;;;;;5060335;28;20028;-70
2021/03/06 03:33:37;;;;;;;7.50;1.48;;;1.50;85.50;;;;;;5060610;28;20029;-70
2021/03/06 03:36:04;;;;;;;8.32;1.42;;;1.50;86.30;;;;;;5059128;28;20032;-69
2021/03/06 03:38:31;;;;;;;8.63;2.17;;;1.50;85.70;;;;;;5062155;28;20029;-69
2021/03/06 03:40:59;;;;;;;6.05;1.50;;;1.60;85.90;;;;;;5060902;28;20069;-69
2021/03/06 03:43:25;;;;;;;8.18;1.55;;;1.60;86.10;;;;;;5061636;28;20491;-69
2021/03/06 03:45:54;;;;;;;8.75;1.73;;;1.60;85.80;;;;;;5062950;28;20130;-70
2021/03/06 03:48:21;;;;;;;8.35;2.22;;;1.60;85.90;;;;;;5063399;28;20028;-70
2021/03/06 03:50:48;;;;;;;10.13;1.27;;;1.60;86.10;;;;;;5066772;28;20060;-69
2021/03/06 03:53:15;;;;;;;8.82;1.48;;;1.70;85.40;;;;;;5064256;28;20090;-69
2021/03/06 03:55:41;;;;;;;6.43;1.23;;;1.70;85.80;;;;;;5060132;28;20509;-70
2021/03/06 03:58:09;;;;;;;9.82;1.98;;;1.70;85.60;;;;;;5065623;28;20024;-70
2021/03/06 04:00:35;;;;;;;6.32;1.65;;;1.70;85.70;;;;;;5063721;28;20660;-70
2021/03/06 04:03:09;;;;;;;8.32;1.52;;;1.70;85.80;;;;;;5066261;28;20108;-70
2021/03/06 04:05:35;;;;;;;11.48;1.98;;;1.70;85.60;;;;;;5063847;28;20030;-70
2021/03/06 04:08:01;;;;;;;7.38;1.42;;;1.70;85.90;;;;;;5065340;28;20112;-70
2021/03/06 04:10:28;;;;;;;8.63;1.95;;;1.70;86.00;;;;;;5064954;28;20120;-69
2021/03/06 04:12:55;;;;;;;8.55;1.50;;;1.70;86.00;;;;;;5065861;28;20033;-69
2021/03/06 04:15:22;;;;;;;4.80;1.65;;;1.70;86.40;;;;;;5062722;28;20029;-70
2021/03/06 04:17:49;;;;;;;7.80;1.40;;;1.70;86.40;;;;;;5064926;28;20399;-69
2021/03/06 04:20:17;;;;;;;8.05;2.38;;;1.70;86.80;;;;;;5066613;28;20061;-69
2021/03/06 04:22:43;;;;;;;5.13;1.67;;;1.70;87.10;;;;;;5064948;28;20150;-70
2021/03/06 04:25:10;;;;;;;7.05;1.67;;;1.70;87.10;;;;;;5065353;28;20033;-70
2021/03/06 04:27:36;;;;;;;7.57;1.98;;;1.70;87.10;;;;;;5063623;28;20025;-70
2021/03/06 04:30:05;;;;;;;9.35;2.05;;;1.70;87.60;;;;;;5063439;28;20071;-70
2021/03/06 04:32:30;;;;;;;10.02;2.35;;;1.70;88.10;;;;;;5065024;28;20032;-69
2021/03/06 04:34:56;;;;;;;5.55;1.60;;;1.70;88.40;;;;;;5064776;28;20047;-69
2021/03/06 04:37:22;;;;;;;8.68;2.00;;;1.60;89.00;;;;;;5063663;28;20052;-70
2021/03/06 04:39:47;;;;;;;7.63;1.90;;;1.70;89.20;;;;;;5064839;28;20040;-70
2021/03/06 04:42:13;;;;;;;8.80;1.83;;;1.70;89.40;;;;;;5063979;28;20032;-70
2021/03/06 04:44:39;;;;;;;6.45;2.33;;;1.70;89.30;;;;;;5066060;28;20060;-70
2021/03/06 04:47:05;;;;;;;6.53;1.92;;;1.70;89.60;;;;;;5065593;28;20031;-69
2021/03/06 04:49:32;;;;;;;7.95;1.77;;;1.70;90.00;;;;;;5065877;28;20470;-70
2021/03/06 04:51:57;;;;;;;5.55;1.48;;;1.70;90.30;;;;;;5063949;28;20036;-70
2021/03/06 04:54:23;;;;;;;7.03;1.95;;;1.70;90.30;;;;;;5064316;28;20032;-69
2021/03/06 04:56:49;;;;;;;6.78;2.13;;;1.70;90.70;;;;;;5062843;28;20390;-70
2021/03/06 04:59:15;;;;;;;8.38;2.33;;;1.70;90.80;;;;;;5064024;28;20602;-70
2021/03/06 05:01:41;;;;;;;10.00;2.50;;;1.80;91.10;;;;;;5062937;28;20025;-70
2021/03/06 05:04:07;;;;;;;10.73;3.25;;;1.80;91.00;;;;;;5063626;28;20025;-69
2021/03/06 05:06:32;;;;;;;7.35;2.70;;;1.80;91.00;;;;;;5063679;28;20029;-70
2021/03/06 05:08:58;;;;;;;7.13;3.00;;;1.80;91.10;;;;;;5063529;28;20024;-70
2021/03/06 05:11:24;;;;;;;7.90;3.45;;;1.80;91.10;;;;;;5064028;28;20071;-70
2021/03/06 05:13:49;;;;;;;9.10;3.10;;;1.80;90.90;;;;;;5064552;28;20478;-69
2021/03/06 05:16:15;;;;;;;11.88;3.88;;;1.80;90.90;;;;;;5064510;28;20032;-70
2021/03/06 05:18:42;;;;;;;9.18;3.40;;;1.90;90.90;;;;;;5067545;28;20036;-70
2021/03/06 05:21:08;;;;;;;13.00;4.50;;;1.80;91.10;;;;;;5061800;28;20563;-70
2021/03/06 05:23:34;;;;;;;9.98;4.90;;;1.80;91.00;;;;;;5066922;28;20506;-70
2021/03/06 05:26:00;;;;;;;19.73;4.70;;;1.90;91.20;;;;;;5067045;28;20040;-70
2021/03/06 05:28:25;;;;;;;13.68;4.55;;;1.90;91.20;;;;;;5066335;28;20025;-70
2021/03/06 05:30:51;;;;;;;13.70;3.83;;;1.90;91.20;;;;;;5065894;28;20031;-70
2021/03/06 05:33:17;;;;;;;11.65;4.00;;;1.90;91.20;;;;;;5066425;28;20032;-70
2021/03/06 05:35:43;;;;;;;16.88;3.80;;;1.90;91.10;;;;;;5067225;28;20028;-70
2021/03/06 05:38:10;;;;;;;11.50;3.72;;;2.00;91.30;;;;;;5064287;28;20024;-70
2021/03/06 05:40:44;;;;;;;11.70;4.82;;;1.90;91.20;;;;;;5063232;28;20441;-69
2021/03/06 05:43:11;;;;;;;11.50;3.58;;;2.00;91.50;;;;;;5062219;28;20596;-70
2021/03/06 05:45:37;;;;;;;6.63;3.25;;;2.00;91.60;;;;;;5068270;28;20035;-70
2021/03/06 05:48:03;;;;;;;9.52;2.90;;;2.00;91.70;;;;;;5068543;28;20025;-71
2021/03/06 05:50:30;;;;;;;10.98;3.60;;;2.00;91.60;;;;;;5067684;28;20040;-70
2021/03/06 05:52:58;;;;;;;8.65;3.67;;;2.00;91.70;;;;;;5071447;28;20097;-70
2021/03/06 05:55:27;;;;;;;13.77;4.28;;;2.00;91.90;;;;;;5059315;28;20035;-71
2021/03/06 05:57:54;;;;;;;9.60;3.17;;;2.00;92.10;;;;;;5070615;28;20036;-71
2021/03/06 06:00:23;;;;;;;9.95;3.67;;;2.00;92.30;;;;;;5067620;28;20103;-70
2021/03/06 06:02:53;;;;;;;12.85;3.85;;;2.10;92.40;;;;;;5068492;28;20028;-71
2021/03/06 06:05:19;;;;;;;17.70;3.50;;;2.10;92.40;;;;;;5068647;28;20040;-71
2021/03/06 06:07:46;;;;;;;15.27;3.40;;;2.10;92.60;;;;;;5067611;28;20024;-69
2021/03/06 06:10:12;;;;;;;9.10;3.38;;;2.20;92.60;;;;;;5065838;28;20420;-71
2021/03/06 06:12:42;;;;;;;11.43;4.32;;;2.20;92.70;;;;;;5063499;28;20039;-70
2021/03/06 06:15:09;;;;;;;11.25;3.60;;;2.30;93.10;;;;;;5067106;28;20489;-70
2021/03/06 06:17:35;;;;;;;8.10;3.90;;;2.30;92.90;;;;;;5070019;28;20032;-70
2021/03/06 06:20:01;;;;;;;10.07;3.30;;;2.40;92.90;;;;;;5067632;28;20120;-70
2021/03/06 06:22:27;;;;;;;15.95;3.45;;;2.40;92.80;;;;;;5069759;28;20032;-70
2021/03/06 06:24:54;;;;;;;14.43;3.40;;;2.40;92.70;;;;;;5067739;28;20054;-69
2021/03/06 06:27:26;;;;;;;10.73;3.70;;;2.50;93.00;;;;;;5066728;28;20482;-70
2021/03/06 06:29:54;;;;;;;11.93;4.40;;;2.50;92.70;;;;;;5062945;28;20382;-70
2021/03/06 06:32:28;;;;;;;13.23;3.47;;;2.50;92.80;;;;;;5061608;28;20027;-71
2021/03/06 06:35:03;;;;;;;8.63;3.88;;;2.50;92.70;;;;;;5065514;28;20044;-70
2021/03/06 06:37:32;;;;;;;12.23;3.88;;;2.50;92.50;;;;;;5068118;28;20138;-71
2021/03/06 06:39:59;;;;;;;9.73;3.28;;;2.50;92.90;;;;;;5061358;28;20047;-70
2021/03/06 06:42:35;;;;;;;10.77;3.63;;;2.50;92.80;;;;;;5061056;28;20103;-71
2021/03/06 06:45:03;;;;;;;12.68;3.83;;;2.50;92.70;;;;;;5061220;28;20029;-70
2021/03/06 06:47:40;;;;;;;10.85;3.63;;;2.50;92.60;;;;;;5063030;28;20082;-71
2021/03/06 06:50:09;;;;;;;13.85;3.95;;;2.60;92.80;;;;;;5065466;28;20382;-70
2021/03/06 06:52:37;;;;;;;12.63;4.13;;;2.60;92.70;;;;;;5067697;28;20105;-71
2021/03/06 06:55:04;;;;;;;10.32;3.70;;;2.60;92.70;;;;;;5064132;28;20114;-70
2021/03/06 06:57:30;;;;;;;16.90;4.43;;;2.60;92.60;;;;;;5067481;28;20101;-71
2021/03/06 07:00:09;;;;;;;10.95;3.72;;;2.60;92.60;;;;;;5063935;28;20060;-71
2021/03/06 07:02:35;;;;;;;14.00;4.45;;;2.70;92.70;;;;;;5061082;28;20033;-70
2021/03/06 07:05:03;;;;;;;10.00;3.88;;;2.70;92.60;;;;;;5067924;28;20094;-70
2021/03/06 07:07:42;;;;;;;10.60;3.90;;;2.80;93.20;;;;;;5068091;28;20048;-70
2021/03/06 07:10:12;;;;;;;13.88;3.80;;;2.90;93.30;;;;;;5062816;28;20024;-70
2021/03/06 07:12:39;;;;;;;10.57;3.38;;;2.90;93.20;;;;;;5063264;28;20542;-70
2021/03/06 07:15:19;;;;;;;16.95;4.72;;;3.00;92.90;;;;;;5065516;28;20386;-70
2021/03/06 07:17:47;;;;;;;16.65;4.32;;;3.00;92.90;;;;;;5068247;28;20056;-69
2021/03/06 07:20:28;;;;;;;11.82;3.88;;;3.00;93.20;;;;;;5062160;28;20037;-70
2021/03/06 07:22:55;;;;;;;;;;;3.10;93.40;;;;;;5070137;28;20398;-70
2021/03/06 07:25:22;;;;;;;14.00;4.45;;;3.20;93.50;;;;;;5060630;28;19923;-69
2021/03/06 07:27:48;;;;;;;6.85;3.75;;;3.20;93.30;;;;;;5063456;28;20028;-70
2021/03/06 07:30:16;;;;;;;8.77;3.55;;;3.20;93.10;;;;;;5059778;28;20513;-69
2021/03/06 07:32:43;;;;;;;11.70;4.72;;;3.30;93.30;;;;;;5065487;28;20613;-69
2021/03/06 07:35:11;;;;;;;15.45;4.25;;;3.30;93.10;;;;;;5063528;28;20037;-70
2021/03/06 07:37:38;;;;;;;12.57;3.63;;;3.30;93.20;;;;;;5062767;28;20493;-70
2021/03/06 07:40:07;;;;;;;16.98;4.20;;;3.40;93.00;;;;;;5064859;28;20036;-68
2021/03/06 07:42:46;;;;;;;17.10;3.90;;;3.40;93.00;;;;;;5069478;28;20515;-69
2021/03/06 07:45:20;;;;;;;14.48;4.25;;;3.40;92.90;;;;;;5076999;28;20042;-71
2021/03/06 07:47:50;;;;;;;16.40;3.92;;;3.50;93.00;;;;;;5065163;28;21275;-68
2021/03/06 07:50:27;;;;;;;17.83;4.65;;;3.50;92.70;;;;;;5069154;28;20041;-70
2021/03/06 07:52:55;;;;;;;13.20;3.75;;;3.60;92.90;;;;;;5069227;28;20032;-68
2021/03/06 07:55:22;;;;;;;14.20;3.80;;;3.60;92.90;;;;;;5070598;28;20028;-69
2021/03/06 07:58:08;;;;;;;16.38;4.10;;;3.60;92.90;;;;;;5073976;28;20028;-78
2021/03/06 08:00:50;;;;;;;13.95;3.97;;;3.60;93.10;;;;;;5062870;28;20036;-69
2021/03/06 08:03:28;;;;;;;13.80;4.20;;;3.70;93.40;;;;;;5070754;28;20025;-72
2021/03/06 08:05:54;;;;;;;10.00;3.25;;;3.70;93.20;;;;;;5068471;28;20044;-71
2021/03/06 08:08:32;;;;;;;15.30;3.95;;;3.70;93.00;;;;;;5069239;28;20025;-69
2021/03/06 08:11:08;;;;;;;15.07;4.07;;;3.80;93.10;;;;;;5069575;28;20029;-69
2021/03/06 08:13:38;;;;;;;17.05;3.60;;;3.90;93.10;;;;;;5068868;28;20106;-72
2021/03/06 08:16:22;;;;;;;11.77;3.55;;;3.90;92.80;;;;;;5067855;28;20029;-71
2021/03/06 08:18:56;;;;;;;13.18;3.80;;;4.00;93.30;;;;;;5067578;28;20024;-71
2021/03/06 08:21:41;;;;;;;14.63;4.20;;;4.20;92.70;;;;;;5069338;28;20037;-69
2021/03/06 08:24:16;;;;;;;14.05;3.40;;;4.20;92.40;;;;;;5073724;28;20074;-69
2021/03/06 08:27:01;;;;;;;16.63;4.13;;;4.20;92.30;;;;;;5070899;28;20028;-69
2021/03/06 08:29:26;;;;;;;11.45;3.20;;;4.20;92.70;;;;;;5061749;28;20445;-73
2021/03/06 08:32:06;;;;;;;16.48;3.50;;;4.20;92.60;;;;;;5068413;28;20032;-70
2021/03/06 08:34:31;;;;;;;14.60;3.15;;;4.20;92.90;;;;;;5073009;28;20504;-71
2021/03/06 08:37:15;;;;;;;11.40;3.08;;;4.20;93.10;;;;;;5069737;28;20036;-69
2021/03/06 08:39:52;;;;;;;9.02;3.17;;;4.20;92.80;;;;;;5071239;28;20104;-69
2021/03/06 08:42:21;;;;;;;11.65;3.70;;;4.20;92.50;;;;;;5069235;28;20064;-69
2021/03/06 08:44:47;;;;;;;10.93;3.03;;;4.10;93.00;;;;;;5069067;28;20028;-67
2021/03/06 08:47:21;;;;;;;10.70;3.10;;;4.20;92.80;;;;;;5072602;28;20025;-67
2021/03/06 08:49:48;;;;;;;13.23;3.50;;;4.20;92.80;;;;;;5067949;28;20041;-69
2021/03/06 08:52:14;;;;;;;8.32;3.00;;;4.20;93.10;;;;;;5071976;28;20108;-69
2021/03/06 08:54:41;;;;;;;10.45;3.35;;;4.20;93.30;;;;;;5066431;28;20116;-67
2021/03/06 08:57:22;;;;;;;12.38;3.65;;;4.20;93.40;;;;;;5065934;28;20506;-70
2021/03/06 08:59:48;;;;;;;;;;;4.20;93.30;;;;;;5065018;28;20052;-69
2021/03/06 09:02:14;;;;;;;12.05;3.70;;;4.30;93.30;;;;;;5065578;28;19936;-68
2021/03/06 09:04:40;;;;;;;6.13;2.42;;;4.30;93.30;;;;;;5065534;28;20036;-68
2021/03/06 09:07:24;;;;;;;7.88;2.85;;;4.40;93.50;;;;;;5062025;28;20025;-66
2021/03/06 09:09:49;;;;;;;8.93;2.90;;;4.40;93.40;;;;;;5068574;28;20108;-67
2021/03/06 09:12:15;;;;;;;4.90;2.35;;;4.50;93.60;;;;;;5074368;28;20107;-69
2021/03/06 09:14:41;;;;;;;6.75;2.60;;;4.60;93.10;;;;;;5070202;28;20463;-70
2021/03/06 09:17:10;;;;;;;9.15;2.53;;;4.70;92.70;;;;;;5066044;28;20424;-69
2021/03/06 09:19:36;;;;;;;5.18;2.40;;;4.70;92.80;;;;;;5079902;28;20586;-70
2021/03/06 09:22:09;;;;;;;5.80;2.70;;;4.80;92.80;;;;;;5066963;28;20067;-69
2021/03/06 09:24:52;;;;;;;8.30;2.72;;;4.90;92.50;;;;;;5065273;28;20078;-69
2021/03/06 09:27:18;;;;;;;6.63;2.17;;;4.90;92.60;;;;;;5066743;28;20028;-68
2021/03/06 09:29:45;;;;;;;6.03;2.20;;;4.90;92.40;;;;;;5068431;28;20023;-68
2021/03/06 09:32:11;;;;;;;5.25;2.13;;;4.90;92.10;;;;;;5067616;28;20024;-67
2021/03/06 09:34:38;;;;;;;9.52;2.85;;;4.90;92.30;;;;;;5070081;28;20074;-69
2021/03/06 09:37:18;;;;;;;6.10;2.25;;;4.90;92.70;;;;;;5063422;28;20032;-68
2021/03/06 09:39:43;;;;;;;6.43;2.28;;;4.90;92.70;;;;;;5070087;28;20470;-67
2021/03/06 09:42:14;;;;;;;11.45;2.33;;;4.90;92.50;;;;;;5062994;28;20025;-67
2021/03/06 09:44:48;;;;;;;7.55;2.40;;;4.90;92.70;;;;;;5069391;28;20041;-67
2021/03/06 09:47:23;;;;;;;5.30;2.05;;;4.90;92.60;;;;;;5071206;28;20056;-67
2021/03/06 09:49:49;;;;;;;7.43;2.20;;;5.00;92.70;;;;;;5065452;28;20036;-68
2021/03/06 09:52:15;;;;;;;5.75;2.33;;;4.90;92.90;;;;;;5065652;28;20021;-67
2021/03/06 09:54:40;;;;;;;6.88;2.60;;;4.90;92.90;;;;;;5064632;28;20516;-67
2021/03/06 09:57:06;;;;;;;4.45;2.10;;;4.90;92.90;;;;;;5069373;28;20056;-68
2021/03/06 09:59:41;;;;;;;7.70;3.10;;;5.00;93.00;;;;;;5060898;28;20037;-69
2021/03/06 10:02:09;;;;;;;6.15;2.70;;;5.00;92.90;;;;;;5068790;28;20444;-67
2021/03/06 10:04:35;;;;;;;7.90;2.80;;;5.00;92.80;;;;;;5068489;28;20470;-68
2021/03/06 10:07:06;;;;;;;10.07;3.05;;;5.00;92.80;;;;;;5070933;28;20347;-67
2021/03/06 10:09:32;;;;;;;;;;;5.00;92.80;;;;;;5068299;28;20107;-68
2021/03/06 10:12:05;;;;;;;6.30;2.95;;;5.00;92.90;;;;;;5069315;28;20453;-68
2021/03/06 10:14:32;;;;;;;9.80;3.58;;;5.00;92.70;;;;;;5068540;28;20382;-68
2021/03/06 10:17:01;;;;;;;12.30;3.80;;;5.00;92.80;;;;;;5065736;28;20044;-68
2021/03/06 10:19:29;;;;;;;9.15;3.20;;;5.00;92.60;;;;;;5056794;28;20040;-69
2021/03/06 10:22:07;;;;;;;9.23;4.00;;;5.10;92.50;;;;;;5069033;28;20044;-69
2021/03/06 10:25:02;;;;;;;7.90;3.67;;;5.10;92.50;;;;;;5068670;28;20135;-67
2021/03/06 10:27:47;;;;;;;5.47;3.03;;;5.20;92.30;;;;;;5062404;28;20595;-67
2021/03/06 10:30:21;;;;;;;7.97;3.47;;;5.30;92.50;;;;;;5066497;28;20032;-68
2021/03/06 10:32:58;;;;;;;13.38;3.88;;;5.30;92.30;;;;;;5068114;28;20074;-68
2021/03/06 10:35:30;;;;;;;7.95;2.75;;;5.40;91.50;;;;;;5058457;28;20559;-68
2021/03/06 10:37:56;;;;;;;4.63;1.88;;;5.40;91.40;;;;;;5067697;28;20095;-67
2021/03/06 10:40:42;;;;;;;4.72;2.20;;;5.40;90.90;;;;;;5070662;28;20115;-67
2021/03/06 10:43:08;;;;;;;5.93;1.88;;;5.40;90.70;;;;;;5065972;28;20029;-68
2021/03/06 10:45:33;;;;;;;4.45;1.77;;;5.40;90.40;;;;;;5066928;28;20033;-68
2021/03/06 10:48:02;;;;;;;5.03;2.17;;;5.40;90.10;;;;;;5068280;28;20377;-68
2021/03/06 10:50:33;;;;;;;6.50;1.98;;;5.40;90.40;;;;;;5064891;28;20025;-67
2021/03/06 10:53:18;;;;;;;8.07;2.30;;;5.40;90.50;;;;;;5064738;28;20037;-68
2021/03/06 10:55:46;;;;;;;6.50;1.77;;;5.40;90.30;;;;;;5066957;28;20056;-68
2021/03/06 10:58:12;;;;;;;4.47;2.10;;;5.40;90.40;;;;;;5068317;28;20398;-70
2021/03/06 11:00:40;;;;;;;5.78;1.73;;;5.50;90.30;;;;;;5064543;28;20017;-68
2021/03/06 11:03:07;;;;;;;4.22;1.25;;;5.70;90.10;;;;;;5064776;28;20526;-70
2021/03/06 11:05:33;;;;;;;4.70;1.40;;;5.80;88.80;;;;;;5067152;28;20112;-70
2021/03/06 11:08:19;;;;;;;4.90;1.60;;;5.80;87.50;;;;;;5069146;28;20063;-70
2021/03/06 11:10:51;;;;;;;4.45;1.58;;;5.80;87.00;;;;;;5069015;28;20026;-69
2021/03/06 11:13:18;;;;;;;5.88;1.73;;;5.80;86.50;;;;;;5060256;28;20035;-71
2021/03/06 11:15:51;;;;;;;7.15;2.17;;;5.70;86.50;;;;;;5068732;28;20029;-66
2021/03/06 11:18:17;;;;;;;5.65;2.15;;;5.60;87.40;;;;;;5065738;28;20500;-68
2021/03/06 11:20:44;;;;;;;8.55;2.65;;;5.60;87.50;;;;;;5062065;28;20024;-68
2021/03/06 11:23:12;;;;;;;5.47;2.90;;;5.60;87.60;;;;;;5066602;28;20025;-67
2021/03/06 11:25:38;;;;;;;7.65;2.97;;;5.60;87.90;;;;;;5068591;28;20027;-68
2021/03/06 11:28:06;;;;;;;8.63;3.65;;;5.60;88.10;;;;;;5060081;28;20025;-70
2021/03/06 11:30:34;;;;;;;8.32;3.60;;;5.60;87.40;;;;;;5069929;28;20642;-70
2021/03/06 11:33:02;;;;;;;8.73;4.47;;;5.60;87.80;;;;;;5068933;28;20047;-73
2021/03/06 11:35:28;;;;;;;8.25;3.97;;;5.60;88.00;;;;;;5068113;28;20034;-66
2021/03/06 11:37:55;;;;;;;9.07;4.45;;;5.60;87.00;;;;;;5066617;28;20029;-74
2021/03/06 11:40:23;;;;;;;6.97;3.70;;;5.60;86.50;;;;;;5070577;28;20082;-66
2021/03/06 11:42:49;;;;;;;7.43;4.90;;;5.70;86.40;;;;;;5062552;28;20025;-67
2021/03/06 11:45:17;;;;;;;9.80;4.57;;;5.70;86.80;;;;;;5078859;22;20105;-75
2021/03/06 11:47:45;;;;;;;9.50;4.30;;;5.70;86.60;;;;;;5044528;28;20025;-75
2021/03/06 11:50:13;;;;;;;8.00;3.63;;;5.70;85.90;;;;;;5050545;28;20560;-77
2021/03/06 11:52:39;;;;;;;12.40;3.78;;;5.70;86.10;;;;;;5047941;28;20052;-75
2021/03/06 11:55:07;;;;;;;6.75;3.25;;;5.70;86.00;;;;;;5054948;28;20474;-74
2021/03/06 11:57:33;;;;;;;8.70;3.88;;;5.70;85.70;;;;;;5066644;28;20021;-78
2021/03/06 11:59:59;;;;;;;6.63;2.65;;;5.60;85.80;;;;;;5067699;28;20100;-76
2021/03/06 12:02:24;;;;;;;7.47;2.70;;;5.70;85.90;;;;;;5071263;28;20098;-77
2021/03/06 12:04:50;;;;;;;8.73;2.40;;;5.60;86.00;;;;;;5067073;28;20032;-78
2021/03/06 12:07:16;;;;;;;7.55;2.03;;;5.60;85.90;;;;;;5072703;28;20027;-77
2021/03/06 12:09:42;;;;;;;9.55;2.60;;;5.60;86.20;;;;;;5078702;28;20020;-79
2021/03/06 12:12:08;;;;;;;5.50;1.73;;;5.70;86.60;;;;;;5076445;28;20021;-78
2021/03/06 12:14:34;;;;;;;4.90;1.85;;;5.70;86.70;;;;;;5074614;28;20068;-78
2021/03/06 12:16:59;;;;;;;4.50;1.70;;;5.70;86.70;;;;;;5065221;28;20028;-77
2021/03/06 12:19:25;;;;;;;6.80;2.30;;;5.70;87.10;;;;;;5070069;28;20037;-76
2021/03/06 12:21:51;;;;;;;3.90;1.67;;;5.70;87.50;;;;;;5075788;28;20033;-79
2021/03/06 12:24:16;;;;;;;4.78;1.80;;;5.80;87.30;;;;;;5074783;28;20107;-79
2021/03/06 12:26:43;;;;;;;6.93;1.70;;;5.90;86.40;;;;;;5078601;28;20255;-79
2021/03/06 12:29:08;;;;;;;6.57;1.40;;;6.00;87.20;;;;;;5076249;28;20021;-79
2021/03/06 12:31:34;;;;;;;3.33;1.50;;;6.00;85.50;;;;;;5058742;28;20020;-80
2021/03/06 12:34:00;;;;;;;5.85;1.75;;;5.90;86.20;;;;;;5071690;28;20028;-78
2021/03/06 12:36:26;;;;;;;7.22;1.90;;;6.00;85.70;;;;;;5072257;28;20025;-78
2021/03/06 12:38:52;;;;;;;4.97;1.55;;;6.00;85.70;;;;;;5073358;28;20034;-75
2021/03/06 12:41:18;;;;;;;7.20;1.88;;;5.90;85.90;;;;;;5073413;28;20104;-73
2021/03/06 12:43:43;;;;;;;4.03;1.70;;;5.90;86.40;;;;;;5069267;28;20135;-76
2021/03/06 12:46:09;;;;;;;7.75;1.58;;;6.00;86.70;;;;;;5068661;28;20158;-76
2021/03/06 12:48:35;;;;;;;6.80;1.70;;;6.00;86.70;;;;;;5041691;28;20037;-76
2021/03/06 12:51:01;;;;;;;5.65;1.60;;;6.10;86.70;;;;;;5051242;28;20021;-76
2021/03/06 12:53:26;;;;;;;7.22;1.85;;;6.30;85.90;;;;;;5054014;28;20025;-77
2021/03/06 12:55:52;;;;;;;6.90;1.38;;;6.40;85.20;;;;;;5059804;28;20273;-76
2021/03/06 12:58:18;;;;;;;9.10;1.35;;;6.40;84.60;;;;;;5058220;28;20025;-77
2021/03/06 13:00:44;;;;;;;6.68;1.20;;;6.40;83.00;;;;;;5060948;28;20060;-78
2021/03/06 13:03:09;;;;;;;4.63;0.82;;;6.50;82.00;;;;;;5052472;28;20025;-77
2021/03/06 13:05:36;;;;;;;3.25;0.93;;;6.40;81.80;;;;;;5048220;28;20108;-76